Time;durP1;ratioP1;P1;durP2;ratioP2;P2;SDS_P1;SDS_P2;PMS_P1;PMS_P2;Temp;Humidity;BMP_temperature;BMP_pressure;BME280_temperature;BME280_humidity;BME280_pressure;Samples;Min_cycle;Max_cycle;Signal;HPM_P1;HPM_P2
2020/12/07 00:00:44;;;;;;;91.25;18.30;;;2.90;99.90;;;;;;5052986;28;20040;-59
2020/12/07 00:03:12;;;;;;;81.97;16.55;;;3.00;99.90;;;;;;5052388;28;20021;-60
2020/12/07 00:05:37;;;;;;;77.03;16.80;;;3.00;99.90;;;;;;5051826;28;20029;-59
2020/12/07 00:08:04;;;;;;;94.00;17.50;;;3.00;99.90;;;;;;5051349;28;20540;-58
2020/12/07 00:10:30;;;;;;;96.80;19.75;;;3.00;99.90;;;;;;5051777;28;20049;-60
2020/12/07 00:12:56;;;;;;;144.77;16.63;;;3.00;99.90;;;;;;5051950;28;20068;-59
2020/12/07 00:15:22;;;;;;;83.80;17.00;;;3.00;99.90;;;;;;5051732;28;20033;-59
2020/12/07 00:17:47;;;;;;;92.20;14.52;;;3.00;99.90;;;;;;5052180;28;20048;-59
2020/12/07 00:20:14;;;;;;;78.35;15.55;;;3.00;99.90;;;;;;5051763;28;20537;-59
2020/12/07 00:22:40;;;;;;;138.38;16.77;;;3.00;99.90;;;;;;5052357;28;20039;-59
2020/12/07 00:25:06;;;;;;;78.75;16.15;;;3.00;99.90;;;;;;5051583;28;20025;-60
2020/12/07 00:27:34;;;;;;;98.38;18.02;;;3.00;99.90;;;;;;5052430;28;20036;-59
2020/12/07 00:30:02;;;;;;;99.00;17.45;;;3.00;99.90;;;;;;5051594;28;20032;-60
2020/12/07 00:32:28;;;;;;;76.15;18.23;;;3.00;99.90;;;;;;5051879;28;20467;-60
2020/12/07 00:34:55;;;;;;;99.97;16.55;;;3.00;99.90;;;;;;5050968;28;20040;-59
2020/12/07 00:37:22;;;;;;;101.95;15.15;;;3.10;99.90;;;;;;5052071;28;20509;-60
2020/12/07 00:39:48;;;;;;;95.43;16.33;;;3.10;99.90;;;;;;5051357;28;20154;-59
2020/12/07 00:42:14;;;;;;;91.13;16.15;;;3.00;99.90;;;;;;5051937;28;20115;-60
2020/12/07 00:44:41;;;;;;;88.68;14.75;;;3.00;99.90;;;;;;5050828;28;20048;-59
2020/12/07 00:47:07;;;;;;;95.03;16.75;;;2.90;99.90;;;;;;5051193;28;20037;-59
2020/12/07 00:49:34;;;;;;;80.15;14.18;;;2.90;99.90;;;;;;5051642;28;20855;-59
2020/12/07 00:52:00;;;;;;;81.80;13.23;;;2.90;99.90;;;;;;5049580;28;20043;-60
2020/12/07 00:54:26;;;;;;;63.97;12.85;;;2.90;99.90;;;;;;5050610;28;20100;-60
2020/12/07 00:56:55;;;;;;;50.63;12.40;;;2.80;99.90;;;;;;5050888;28;20489;-61
2020/12/07 00:59:21;;;;;;;62.00;15.82;;;2.80;99.90;;;;;;5051889;28;20040;-59
2020/12/07 01:01:47;;;;;;;58.47;13.48;;;2.80;99.90;;;;;;5051165;28;20017;-59
2020/12/07 01:04:13;;;;;;;85.20;13.05;;;2.90;99.90;;;;;;5051746;28;20033;-60
2020/12/07 01:06:39;;;;;;;59.83;13.23;;;2.80;99.90;;;;;;5051169;28;20103;-60
2020/12/07 01:09:04;;;;;;;65.55;15.23;;;2.70;99.90;;;;;;5051543;28;20067;-59
2020/12/07 01:11:30;;;;;;;96.05;14.98;;;2.80;99.90;;;;;;5050906;28;20099;-60
2020/12/07 01:13:56;;;;;;;48.13;14.80;;;2.80;99.90;;;;;;5051501;28;20111;-60
2020/12/07 01:16:23;;;;;;;78.95;14.55;;;2.70;99.90;;;;;;5050487;28;20035;-60
2020/12/07 01:18:50;;;;;;;75.38;14.32;;;2.80;99.90;;;;;;5067232;28;20025;-58
2020/12/07 01:21:17;;;;;;;76.40;13.95;;;2.80;99.90;;;;;;5070718;28;20037;-58
2020/12/07 01:23:44;;;;;;;56.58;12.20;;;2.90;99.90;;;;;;5071421;28;20028;-59
2020/12/07 01:26:14;;;;;;;62.13;14.13;;;2.80;99.90;;;;;;5071002;28;20071;-60
2020/12/07 01:28:40;;;;;;;56.58;13.50;;;2.70;99.90;;;;;;5071539;28;20485;-58
2020/12/07 01:31:06;;;;;;;63.60;12.65;;;2.70;99.90;;;;;;5070958;28;20545;-60
2020/12/07 01:33:32;;;;;;;48.95;12.15;;;2.70;99.90;;;;;;5071500;28;20107;-60
2020/12/07 01:35:58;;;;;;;74.22;11.90;;;2.70;99.90;;;;;;5070496;28;20044;-59
2020/12/07 01:38:23;;;;;;;44.80;13.02;;;2.60;99.90;;;;;;5071390;28;20421;-60
2020/12/07 01:40:49;;;;;;;50.78;11.85;;;2.60;99.90;;;;;;5070782;28;20038;-59
2020/12/07 01:43:16;;;;;;;46.45;11.27;;;2.70;99.90;;;;;;5071276;28;20032;-60
2020/12/07 01:45:42;;;;;;;96.95;11.05;;;2.70;99.90;;;;;;5070914;28;20035;-59
2020/12/07 01:48:09;;;;;;;45.28;11.23;;;2.60;99.90;;;;;;5071523;28;20599;-59
2020/12/07 01:50:40;;;;;;;66.00;11.20;;;2.70;99.90;;;;;;5070690;28;20078;-59
2020/12/07 01:53:06;;;;;;;61.10;10.40;;;2.60;99.90;;;;;;5071430;28;20024;-59
2020/12/07 01:55:32;;;;;;;55.42;10.55;;;2.70;99.90;;;;;;5070309;28;20053;-60
2020/12/07 01:57:57;;;;;;;69.20;10.73;;;2.60;99.90;;;;;;5070899;28;20032;-60
2020/12/07 02:00:24;;;;;;;83.07;10.48;;;2.60;99.90;;;;;;5069263;28;20454;-59
2020/12/07 02:02:51;;;;;;;66.18;10.52;;;2.70;99.90;;;;;;5071266;28;20470;-62
2020/12/07 02:05:17;;;;;;;63.17;9.75;;;2.60;99.90;;;;;;5072529;28;20028;-59
2020/12/07 02:07:43;;;;;;;77.63;9.98;;;2.60;99.90;;;;;;5074832;28;20063;-61
2020/12/07 02:10:09;;;;;;;81.65;10.32;;;2.60;99.90;;;;;;5074728;28;20079;-60
2020/12/07 02:12:35;;;;;;;70.22;9.68;;;2.70;99.90;;;;;;5074240;28;20532;-58
2020/12/07 02:15:00;;;;;;;86.07;10.77;;;2.70;99.90;;;;;;5074487;28;20522;-60
2020/12/07 02:17:26;;;;;;;61.47;11.18;;;2.70;99.90;;;;;;5073962;28;20486;-60
2020/12/07 02:19:52;;;;;;;64.15;10.35;;;2.70;99.90;;;;;;5074599;28;20086;-59
2020/12/07 02:22:17;;;;;;;110.30;10.90;;;2.70;99.90;;;;;;5073606;28;20110;-58
2020/12/07 02:24:43;;;;;;;65.32;10.82;;;2.80;99.90;;;;;;5074909;28;20029;-60
2020/12/07 02:27:09;;;;;;;76.10;11.27;;;2.80;99.90;;;;;;5074143;28;20450;-59
2020/12/07 02:29:35;;;;;;;56.38;11.45;;;2.80;99.90;;;;;;5074466;28;20028;-61
2020/12/07 02:32:15;;;;;;;83.13;13.13;;;2.80;99.90;;;;;;5073722;28;20029;-59
2020/12/07 02:34:42;;;;;;;70.15;12.27;;;2.70;99.90;;;;;;5074535;28;20028;-61
2020/12/07 02:37:09;;;;;;;41.53;13.10;;;2.70;99.90;;;;;;5073704;28;20406;-60
2020/12/07 02:39:34;;;;;;;92.93;13.85;;;2.70;99.90;;;;;;5074355;28;20115;-60
2020/12/07 02:42:04;;;;;;;82.40;15.15;;;2.70;99.90;;;;;;5073432;28;20166;-59
2020/12/07 02:44:30;;;;;;;83.85;13.85;;;2.70;99.90;;;;;;5074002;28;20032;-59
2020/12/07 02:46:58;;;;;;;110.82;14.48;;;2.70;99.90;;;;;;5072381;28;20032;-59
2020/12/07 02:49:24;;;;;;;121.22;13.75;;;2.60;99.90;;;;;;5074143;28;20107;-60
2020/12/07 02:51:50;;;;;;;152.35;13.10;;;2.50;99.90;;;;;;5073470;28;20234;-60
2020/12/07 02:54:16;;;;;;;115.97;13.85;;;2.50;99.90;;;;;;5073963;28;20036;-59
2020/12/07 02:56:42;;;;;;;166.38;13.18;;;2.50;99.90;;;;;;5073298;28;20028;-60
2020/12/07 02:59:07;;;;;;;131.15;12.50;;;2.40;99.90;;;;;;5073940;28;20029;-60
2020/12/07 03:01:33;;;;;;;113.93;12.45;;;2.40;99.90;;;;;;5073440;28;20041;-61
2020/12/07 03:03:59;;;;;;;145.85;14.43;;;2.30;99.90;;;;;;5073811;28;20024;-59
2020/12/07 03:06:26;;;;;;;81.35;11.95;;;2.30;99.90;;;;;;5071719;28;20024;-60
2020/12/07 03:08:51;;;;;;;109.00;11.05;;;2.30;99.90;;;;;;5073961;28;20434;-59
2020/12/07 03:11:17;;;;;;;114.07;11.50;;;2.20;99.90;;;;;;5072877;28;20127;-61
2020/12/07 03:13:42;;;;;;;239.25;11.85;;;2.20;99.90;;;;;;5073678;28;20114;-58
2020/12/07 03:16:08;;;;;;;163.60;12.07;;;2.10;99.90;;;;;;5072498;28;20063;-60
2020/12/07 03:18:34;;;;;;;104.35;11.48;;;2.10;99.90;;;;;;5073651;28;20025;-61
2020/12/07 03:20:59;;;;;;;132.00;12.23;;;2.00;99.90;;;;;;5072458;28;20031;-59
2020/12/07 03:23:25;;;;;;;213.77;13.38;;;2.00;99.90;;;;;;5060644;28;20029;-60
2020/12/07 03:25:51;;;;;;;142.85;12.35;;;2.00;99.90;;;;;;5052444;28;20023;-60
2020/12/07 03:28:16;;;;;;;140.65;13.10;;;2.00;99.90;;;;;;5053731;28;20033;-60
2020/12/07 03:30:42;;;;;;;146.70;11.93;;;2.00;99.90;;;;;;5053228;28;20044;-60
2020/12/07 03:33:08;;;;;;;127.82;12.32;;;2.00;99.90;;;;;;5052885;28;20033;-60
2020/12/07 03:35:33;;;;;;;121.15;12.45;;;2.00;99.90;;;;;;5058825;28;20036;-59
2020/12/07 03:37:59;;;;;;;220.15;12.40;;;2.00;99.90;;;;;;5072172;28;20047;-58
2020/12/07 03:40:25;;;;;;;120.30;10.68;;;1.90;99.90;;;;;;5073300;28;20025;-60
2020/12/07 03:42:50;;;;;;;132.43;11.77;;;1.90;99.90;;;;;;5072452;28;20367;-59
2020/12/07 03:45:16;;;;;;;172.38;12.73;;;1.80;99.90;;;;;;5073021;28;20055;-59
2020/12/07 03:47:42;;;;;;;108.80;11.95;;;1.80;99.90;;;;;;5072107;28;20060;-60
2020/12/07 03:50:07;;;;;;;104.45;12.18;;;1.90;99.90;;;;;;5073002;28;20024;-60
2020/12/07 03:52:33;;;;;;;157.50;11.68;;;1.90;99.90;;;;;;5071085;28;20055;-59
2020/12/07 03:54:59;;;;;;;192.95;11.68;;;1.90;99.90;;;;;;5072785;28;20028;-61
2020/12/07 03:57:24;;;;;;;150.93;12.25;;;1.90;99.90;;;;;;5070909;28;20041;-59
2020/12/07 03:59:50;;;;;;;205.48;11.85;;;1.70;99.90;;;;;;5072660;28;20097;-59
2020/12/07 04:02:16;;;;;;;148.07;8.60;;;1.70;99.90;;;;;;5071944;28;20024;-58
2020/12/07 04:04:49;;;;;;;114.30;8.73;;;1.70;99.90;;;;;;5072562;28;20035;-60
2020/12/07 04:07:15;;;;;;;166.73;8.50;;;1.60;99.90;;;;;;5071759;28;20028;-58
2020/12/07 04:09:41;;;;;;;114.10;8.13;;;1.50;99.90;;;;;;5072362;28;20386;-59
2020/12/07 04:12:07;;;;;;;100.28;7.47;;;1.50;99.90;;;;;;5071739;28;20127;-59
2020/12/07 04:14:32;;;;;;;148.15;7.50;;;1.40;99.90;;;;;;5072251;28;20382;-59
2020/12/07 04:16:58;;;;;;;173.88;7.82;;;1.30;99.90;;;;;;5071700;28;20040;-60
2020/12/07 04:19:23;;;;;;;73.60;6.90;;;1.30;99.90;;;;;;5072311;28;20108;-60
2020/12/07 04:21:49;;;;;;;63.13;6.40;;;1.30;99.90;;;;;;5071523;28;20496;-59
2020/12/07 04:24:15;;;;;;;95.90;5.82;;;1.30;99.90;;;;;;5072406;28;20025;-61
2020/12/07 04:26:40;;;;;;;57.83;6.10;;;1.30;99.90;;;;;;5071220;28;20393;-59
2020/12/07 04:29:06;;;;;;;82.90;5.78;;;1.20;99.90;;;;;;5071290;28;20509;-59
2020/12/07 04:31:32;;;;;;;67.45;5.30;;;1.20;99.90;;;;;;5071406;28;20024;-59
2020/12/07 04:33:57;;;;;;;56.42;6.05;;;1.20;99.90;;;;;;5072172;28;20462;-59
2020/12/07 04:36:23;;;;;;;70.97;5.10;;;1.20;99.90;;;;;;5069808;28;20071;-59
2020/12/07 04:38:49;;;;;;;64.75;6.18;;;1.10;99.90;;;;;;5072036;28;20078;-60
2020/12/07 04:41:15;;;;;;;78.28;6.43;;;1.10;99.90;;;;;;5072212;28;20032;-59
2020/12/07 04:43:41;;;;;;;61.72;6.60;;;1.00;99.90;;;;;;5071193;28;20508;-59
2020/12/07 04:46:07;;;;;;;54.03;6.45;;;1.00;99.90;;;;;;5070913;28;20035;-59
2020/12/07 04:48:35;;;;;;;53.08;6.25;;;1.10;99.90;;;;;;5070075;28;20396;-59
2020/12/07 04:51:01;;;;;;;55.42;6.85;;;1.10;99.90;;;;;;5071673;28;20064;-59
2020/12/07 04:53:27;;;;;;;43.63;6.72;;;1.00;99.90;;;;;;5071184;28;20074;-60
2020/12/07 04:55:56;;;;;;;60.03;7.65;;;1.10;99.90;;;;;;5070858;28;20029;-59
2020/12/07 04:58:22;;;;;;;72.47;6.65;;;1.00;99.90;;;;;;5069705;28;20043;-61
2020/12/07 05:00:48;;;;;;;55.45;6.65;;;1.00;99.90;;;;;;5071960;28;20024;-59
2020/12/07 05:03:14;;;;;;;70.10;7.32;;;1.00;99.90;;;;;;5071045;28;20024;-60
2020/12/07 05:05:39;;;;;;;54.78;6.40;;;0.90;99.90;;;;;;5071562;28;20530;-59
2020/12/07 05:08:05;;;;;;;67.05;6.82;;;0.80;99.90;;;;;;5069993;28;20039;-58
2020/12/07 05:10:37;;;;;;;88.93;6.80;;;0.80;99.90;;;;;;5071293;28;20044;-60
2020/12/07 05:15:48;;;;;;;52.00;6.35;;;0.80;99.90;;;;;;5069783;28;20043;-61
2020/12/07 05:18:14;;;;;;;45.28;6.85;;;0.80;99.90;;;;;;5052150;28;20059;-60
2020/12/07 05:20:40;;;;;;;77.60;7.03;;;0.80;99.90;;;;;;5051001;28;20051;-59
2020/12/07 05:23:05;;;;;;;139.88;9.18;;;0.80;99.90;;;;;;5050901;28;20468;-59
2020/12/07 05:25:31;;;;;;;77.32;7.53;;;0.80;99.90;;;;;;5051679;28;20025;-59
2020/12/07 05:28:03;;;;;;;75.22;8.82;;;0.80;99.90;;;;;;5050748;28;20028;-59
2020/12/07 05:30:40;;;;;;;56.05;8.68;;;0.80;99.90;;;;;;5050171;28;20040;-58
2020/12/07 05:33:06;;;;;;;99.53;8.98;;;0.90;99.90;;;;;;5050597;28;20025;-59
2020/12/07 05:35:39;;;;;;;111.95;8.75;;;0.90;99.90;;;;;;5050041;28;20036;-59
2020/12/07 05:38:06;;;;;;;96.05;8.07;;;0.90;99.90;;;;;;5050801;28;20029;-60
2020/12/07 05:40:32;;;;;;;139.73;9.27;;;0.80;99.90;;;;;;5055086;28;20025;-59
2020/12/07 05:42:59;;;;;;;86.53;9.02;;;0.80;99.90;;;;;;5054647;28;20033;-59
2020/12/07 05:45:25;;;;;;;95.75;8.80;;;0.70;99.90;;;;;;5055521;28;20021;-59
2020/12/07 05:47:53;;;;;;;74.82;9.27;;;0.70;99.90;;;;;;5070322;28;20043;-60
2020/12/07 05:50:20;;;;;;;161.50;10.48;;;0.80;99.90;;;;;;5074861;28;20040;-59
2020/12/07 05:52:47;;;;;;;70.50;9.30;;;0.80;99.90;;;;;;5074492;28;20037;-60
2020/12/07 05:55:15;;;;;;;43.65;8.45;;;0.80;99.90;;;;;;5075222;28;20027;-60
2020/12/07 05:58:05;;;;;;;76.10;8.35;;;0.80;99.90;;;;;;5074113;28;20033;-60
2020/12/07 06:00:35;;;;;;;72.57;8.90;;;0.80;99.90;;;;;;5075040;28;20487;-58
2020/12/07 06:03:06;;;;;;;64.22;9.20;;;0.90;99.90;;;;;;5074198;28;20024;-60
2020/12/07 06:05:32;;;;;;;132.48;10.13;;;0.80;99.90;;;;;;5074670;28;20033;-61
2020/12/07 06:08:06;;;;;;;131.02;11.15;;;0.90;99.90;;;;;;5074182;28;20063;-60
2020/12/07 06:10:40;;;;;;;100.90;10.63;;;0.80;99.90;;;;;;5074932;28;20044;-59
2020/12/07 06:13:13;;;;;;;73.97;8.80;;;0.80;99.90;;;;;;5074287;28;20036;-60
2020/12/07 06:15:44;;;;;;;140.20;10.07;;;0.80;99.90;;;;;;5073607;28;20032;-60
2020/12/07 06:18:23;;;;;;;80.68;8.85;;;0.80;99.90;;;;;;5073850;28;20047;-60
2020/12/07 06:20:54;;;;;;;55.60;9.07;;;0.70;99.90;;;;;;5074324;28;20016;-60
2020/12/07 06:23:28;;;;;;;99.15;10.07;;;0.80;99.90;;;;;;5073897;28;20062;-59
2020/12/07 06:25:54;;;;;;;169.35;11.05;;;0.70;99.90;;;;;;5074627;28;20355;-60
2020/12/07 06:28:26;;;;;;;97.63;10.35;;;0.70;99.90;;;;;;5073816;28;20070;-60
2020/12/07 06:30:52;;;;;;;41.92;9.40;;;0.80;99.90;;;;;;5074405;28;20108;-60
2020/12/07 06:33:20;;;;;;;72.72;10.55;;;0.80;99.90;;;;;;5074059;28;20128;-59
2020/12/07 06:35:46;;;;;;;46.63;11.05;;;0.80;99.90;;;;;;5074281;28;20028;-60
2020/12/07 06:38:13;;;;;;;102.00;11.65;;;0.80;99.90;;;;;;5073391;28;20021;-60
2020/12/07 06:40:39;;;;;;;95.70;9.75;;;0.80;99.90;;;;;;5074295;28;20070;-58
2020/12/07 06:43:20;;;;;;;77.53;14.15;;;0.80;99.90;;;;;;5073547;28;20489;-60
2020/12/07 06:45:45;;;;;;;112.20;11.25;;;0.80;99.90;;;;;;5074175;28;20055;-59
2020/12/07 06:48:13;;;;;;;143.80;10.75;;;0.80;99.90;;;;;;5073787;28;20028;-60
2020/12/07 06:50:41;;;;;;;79.82;10.57;;;0.80;99.90;;;;;;5073106;28;20031;-61
2020/12/07 06:53:47;;;;;;;93.35;9.43;;;0.70;99.90;;;;;;5073527;28;20028;-59
2020/12/07 06:56:10;;;;;;;104.82;11.50;;;0.80;99.90;;;;;;5073505;28;20071;-59
2020/12/07 06:58:40;;;;;;;91.65;10.27;;;0.70;99.90;;;;;;5073302;28;20042;-61
2020/12/07 07:01:14;;;;;;;108.07;10.50;;;0.70;99.90;;;;;;5072632;28;20033;-59
2020/12/07 07:03:52;;;;;;;81.17;11.40;;;0.70;99.90;;;;;;5073181;28;20098;-60
2020/12/07 07:06:22;;;;;;;72.55;10.68;;;0.70;99.90;;;;;;5073857;28;20067;-59
2020/12/07 07:08:53;;;;;;;75.45;11.57;;;0.80;99.90;;;;;;5071839;28;20025;-60
2020/12/07 07:11:19;;;;;;;69.82;15.40;;;0.80;99.90;;;;;;5073656;28;20131;-59
2020/12/07 07:13:47;;;;;;;69.15;11.93;;;0.90;99.90;;;;;;5072998;28;20112;-57
2020/12/07 07:16:15;;;;;;;106.78;11.05;;;1.00;99.90;;;;;;5073404;28;20043;-59
2020/12/07 07:18:42;;;;;;;75.88;9.90;;;0.80;99.90;;;;;;5072769;28;20040;-61
2020/12/07 07:21:08;;;;;;;106.85;11.13;;;0.80;99.90;;;;;;5062906;28;20025;-60
2020/12/07 07:23:37;;;;;;;100.55;11.02;;;0.80;99.90;;;;;;5052468;28;20036;-59
2020/12/07 07:26:26;;;;;;;84.40;10.73;;;0.80;99.90;;;;;;5053374;28;20132;-59
2020/12/07 07:28:52;;;;;;;125.88;10.52;;;0.80;99.90;;;;;;5052732;28;20029;-59
2020/12/07 07:31:18;;;;;;;104.28;10.13;;;0.70;99.90;;;;;;5067891;28;20363;-59
2020/12/07 07:33:45;;;;;;;105.88;11.32;;;0.70;99.90;;;;;;5072466;28;20032;-58
2020/12/07 07:36:24;;;;;;;104.32;10.80;;;0.60;99.90;;;;;;5073101;28;20089;-60
2020/12/07 07:38:58;;;;;;;88.05;10.73;;;0.50;99.90;;;;;;5072771;28;20513;-59
2020/12/07 07:41:27;;;;;;;106.68;10.40;;;0.50;99.90;;;;;;5072965;28;20428;-60
2020/12/07 07:43:55;;;;;;;70.82;9.45;;;0.60;99.90;;;;;;5070898;28;20136;-58
2020/12/07 07:46:22;;;;;;;92.13;8.73;;;0.60;99.90;;;;;;5072492;28;20058;-61
2020/12/07 07:49:38;;;;;;;132.77;10.75;;;0.60;99.90;;;;;;5072384;28;20040;-58
2020/12/07 08:16:20;;;;;;;91.18;10.68;;;0.60;99.90;;;;;;5072150;28;20082;-60
2020/12/07 08:18:47;;;;;;;50.58;9.60;;;0.70;99.90;;;;;;5071535;28;20439;-61
2020/12/07 08:21:24;;;;;;;61.47;11.20;;;0.70;99.90;;;;;;5071696;28;20523;-60
2020/12/07 08:23:53;;;;;;;52.38;13.18;;;0.70;99.90;;;;;;5071385;28;20033;-60
2020/12/07 08:26:19;;;;;;;112.88;11.05;;;0.80;99.90;;;;;;5072271;28;20762;-60
2020/12/07 08:28:48;;;;;;;96.25;10.88;;;0.80;99.90;;;;;;5069499;28;20040;-59
2020/12/07 08:31:17;;;;;;;54.65;11.88;;;0.80;99.90;;;;;;5072096;28;20039;-60
2020/12/07 08:34:11;;;;;;;54.67;10.98;;;0.80;99.90;;;;;;5071157;28;20064;-60
2020/12/07 08:36:38;;;;;;;118.20;13.40;;;0.70;99.90;;;;;;5071925;28;20037;-60
2020/12/07 08:39:05;;;;;;;124.22;11.15;;;0.60;99.90;;;;;;5071078;28;20027;-59
2020/12/07 08:41:33;;;;;;;93.35;10.00;;;0.60;99.90;;;;;;5071866;28;20453;-60
2020/12/07 08:44:01;;;;;;;76.40;16.10;;;0.50;99.90;;;;;;5071004;28;20078;-60
2020/12/07 08:46:29;;;;;;;88.60;9.40;;;0.50;99.90;;;;;;5071947;28;20539;-59
2020/12/07 08:48:55;;;;;;;61.38;10.15;;;0.50;99.90;;;;;;5070028;28;20082;-61
2020/12/07 08:51:24;;;;;;;91.88;10.93;;;0.50;99.90;;;;;;5071578;28;20020;-61
2020/12/07 08:53:50;;;;;;;86.85;11.05;;;0.60;99.90;;;;;;5071364;28;20068;-61
2020/12/07 08:56:16;;;;;;;74.68;11.45;;;0.70;99.90;;;;;;5071700;28;20508;-60
2020/12/07 08:58:42;;;;;;;73.18;11.82;;;0.70;99.90;;;;;;5070944;28;20083;-59
2020/12/07 09:01:10;;;;;;;69.90;10.95;;;0.80;99.90;;;;;;5070644;28;20048;-61
2020/12/07 09:03:37;;;;;;;71.20;10.00;;;0.70;99.90;;;;;;5071463;28;20067;-61
2020/12/07 09:06:04;;;;;;;60.30;9.18;;;0.70;99.90;;;;;;5071479;28;20025;-59
2020/12/07 09:08:33;;;;;;;49.88;9.30;;;0.60;99.90;;;;;;5069550;28;20028;-59
2020/12/07 09:10:59;;;;;;;73.55;10.68;;;0.70;99.90;;;;;;5071445;28;20056;-60
2020/12/07 09:13:25;;;;;;;54.65;9.90;;;0.70;99.90;;;;;;5070247;28;20715;-59
2020/12/07 09:15:52;;;;;;;40.42;9.55;;;0.80;99.90;;;;;;5071274;28;20075;-59
2020/12/07 09:18:18;;;;;;;75.50;10.30;;;0.80;99.90;;;;;;5070877;28;20032;-60
2020/12/07 09:20:44;;;;;;;73.78;9.70;;;0.70;99.90;;;;;;5071315;28;20036;-60
2020/12/07 09:23:10;;;;;;;71.03;9.70;;;0.70;99.90;;;;;;5071269;28;20028;-60
2020/12/07 09:25:35;;;;;;;62.28;9.18;;;0.80;99.90;;;;;;5057091;28;20441;-60
2020/12/07 09:28:01;;;;;;;72.03;8.35;;;0.70;99.90;;;;;;5051201;28;20482;-59
2020/12/07 09:30:27;;;;;;;79.13;8.32;;;0.70;99.90;;;;;;5050509;28;20429;-61
2020/12/07 09:32:52;;;;;;;128.13;9.45;;;0.70;99.90;;;;;;5051128;28;20115;-59
2020/12/07 09:35:18;;;;;;;40.13;9.85;;;0.60;99.90;;;;;;5050558;28;20025;-59
2020/12/07 09:37:44;;;;;;;152.35;9.23;;;0.70;99.90;;;;;;5051241;28;20029;-59
2020/12/07 09:40:12;;;;;;;55.63;8.75;;;0.70;99.90;;;;;;5050354;28;20466;-60
2020/12/07 09:42:39;;;;;;;48.28;9.75;;;0.70;99.90;;;;;;5050358;28;20025;-59
2020/12/07 09:45:06;;;;;;;34.10;11.07;;;0.80;99.90;;;;;;5050606;28;20336;-58
2020/12/07 09:47:32;;;;;;;56.85;9.10;;;0.90;99.90;;;;;;5051196;28;20035;-59
2020/12/07 09:49:58;;;;;;;39.28;8.95;;;0.90;99.90;;;;;;5049687;28;20025;-63
2020/12/07 09:52:24;;;;;;;33.70;9.48;;;1.00;99.90;;;;;;5051003;28;20028;-60
2020/12/07 09:54:49;;;;;;;28.60;9.13;;;1.00;99.90;;;;;;5050632;28;20045;-59
2020/12/07 09:57:15;;;;;;;32.90;8.85;;;1.00;99.90;;;;;;5051322;28;20063;-59
2020/12/07 09:59:42;;;;;;;86.88;8.60;;;1.00;99.90;;;;;;5050350;28;20021;-60
2020/12/07 10:02:07;;;;;;;70.97;8.40;;;0.90;99.90;;;;;;5051099;28;20025;-58
2020/12/07 10:04:33;;;;;;;27.77;9.60;;;0.90;99.90;;;;;;5050270;28;20029;-60
2020/12/07 10:06:59;;;;;;;58.88;9.60;;;1.00;99.90;;;;;;5050971;28;20040;-59
2020/12/07 10:09:25;;;;;;;71.50;8.88;;;1.00;99.90;;;;;;5050384;28;20087;-60
2020/12/07 10:11:50;;;;;;;61.65;8.90;;;1.10;99.90;;;;;;5051054;28;20045;-59
2020/12/07 10:14:16;;;;;;;68.15;8.60;;;1.00;99.90;;;;;;5050302;28;20104;-59
2020/12/07 10:16:44;;;;;;;65.25;9.05;;;1.00;99.90;;;;;;5050577;28;20037;-60
2020/12/07 10:19:10;;;;;;;29.90;8.23;;;0.80;99.90;;;;;;5050314;28;20025;-59
2020/12/07 10:21:36;;;;;;;31.33;8.10;;;0.90;99.90;;;;;;5067567;28;20021;-62
2020/12/07 10:24:02;;;;;;;67.78;9.00;;;1.00;99.90;;;;;;5070251;28;20058;-59
2020/12/07 10:26:28;;;;;;;32.80;9.52;;;0.90;99.90;;;;;;5072676;28;20031;-60
2020/12/07 10:28:55;;;;;;;34.40;8.75;;;1.00;99.90;;;;;;5074025;28;20186;-59
2020/12/07 10:31:21;;;;;;;66.95;8.55;;;1.10;99.90;;;;;;5074352;28;20051;-62
2020/12/07 10:33:52;;;;;;;41.33;8.90;;;1.10;99.90;;;;;;5073513;28;20020;-59
2020/12/07 10:36:18;;;;;;;40.70;8.98;;;1.10;99.90;;;;;;5073835;28;20044;-60
2020/12/07 10:38:45;;;;;;;66.20;8.95;;;1.20;99.90;;;;;;5073755;28;20051;-59
2020/12/07 10:41:11;;;;;;;58.17;9.27;;;1.30;99.90;;;;;;5074248;28;20064;-61
2020/12/07 10:43:37;;;;;;;40.60;9.05;;;1.30;99.90;;;;;;5074257;28;20098;-59
2020/12/07 10:46:03;;;;;;;49.80;9.82;;;1.30;99.90;;;;;;5073567;28;20090;-60
2020/12/07 10:48:29;;;;;;;31.95;9.40;;;1.30;99.90;;;;;;5074236;28;20428;-59
2020/12/07 10:50:56;;;;;;;24.08;10.75;;;1.30;99.90;;;;;;5073445;28;20032;-60
2020/12/07 10:53:23;;;;;;;26.10;9.98;;;1.40;99.90;;;;;;5073935;28;20064;-60
2020/12/07 10:55:50;;;;;;;30.55;10.30;;;1.40;99.90;;;;;;5073585;28;20458;-60
2020/12/07 10:58:16;;;;;;;45.38;13.15;;;1.60;99.90;;;;;;5073752;28;20029;-61
2020/12/07 11:00:42;;;;;;;50.50;10.05;;;1.60;99.90;;;;;;5071802;28;20029;-59
2020/12/07 11:03:08;;;;;;;61.47;10.75;;;1.40;99.90;;;;;;5073924;28;20043;-60
2020/12/07 11:05:34;;;;;;;72.35;11.10;;;1.40;99.90;;;;;;5073102;28;20059;-60
2020/12/07 11:08:01;;;;;;;53.60;10.88;;;1.50;99.90;;;;;;5073704;28;20032;-60
2020/12/07 11:10:26;;;;;;;61.38;10.95;;;1.60;99.90;;;;;;5072843;28;20075;-60
2020/12/07 11:13:03;;;;;;;79.50;10.88;;;1.70;99.90;;;;;;5073814;28;20425;-59
2020/12/07 11:15:29;;;;;;;44.28;10.20;;;1.60;99.90;;;;;;5072648;28;20032;-59
2020/12/07 11:17:55;;;;;;;57.92;11.40;;;1.60;99.90;;;;;;5073569;28;20120;-61
2020/12/07 11:20:20;;;;;;;41.25;9.70;;;1.60;99.90;;;;;;5072454;28;20453;-59
2020/12/07 11:22:46;;;;;;;95.82;10.05;;;1.70;99.90;;;;;;5060707;28;20029;-59
2020/12/07 11:25:12;;;;;;;57.88;10.32;;;1.60;99.90;;;;;;5052741;28;20032;-59
2020/12/07 11:27:37;;;;;;;57.03;10.38;;;1.60;99.90;;;;;;5053378;28;20065;-60
2020/12/07 11:30:03;;;;;;;39.38;11.73;;;1.60;99.90;;;;;;5062267;28;20486;-59
2020/12/07 11:32:29;;;;;;;33.45;9.98;;;1.50;99.90;;;;;;5073479;28;20035;-59
2020/12/07 11:34:55;;;;;;;81.18;11.80;;;1.60;99.90;;;;;;5072522;28;20036;-59
2020/12/07 11:37:21;;;;;;;52.13;10.68;;;1.60;99.90;;;;;;5072657;28;20371;-58
2020/12/07 11:39:53;;;;;;;51.42;12.68;;;1.70;99.90;;;;;;5072682;28;20032;-61
2020/12/07 11:42:44;;;;;;;83.80;12.05;;;1.80;99.90;;;;;;5073337;28;20063;-60
2020/12/07 11:45:09;;;;;;;68.70;11.38;;;1.80;99.90;;;;;;5072232;28;20035;-59
2020/12/07 11:47:35;;;;;;;42.55;12.38;;;1.90;99.90;;;;;;5073102;28;20390;-60
2020/12/07 11:50:01;;;;;;;73.75;12.35;;;2.00;99.90;;;;;;5072184;28;20024;-59
2020/12/07 11:52:27;;;;;;;83.75;12.13;;;2.10;99.90;;;;;;5073019;28;20029;-59
2020/12/07 11:54:52;;;;;;;80.93;10.52;;;2.10;99.90;;;;;;5072274;28;20028;-60
2020/12/07 11:57:18;;;;;;;43.47;11.85;;;2.10;99.90;;;;;;5071774;28;20429;-59
2020/12/07 11:59:43;;;;;;;113.18;12.23;;;2.00;99.90;;;;;;5072091;28;20021;-61
2020/12/07 12:02:09;;;;;;;86.13;13.77;;;1.90;99.90;;;;;;5072658;28;20127;-59
2020/12/07 12:04:35;;;;;;;44.58;13.20;;;2.00;99.90;;;;;;5071677;28;20036;-60
2020/12/07 12:07:00;;;;;;;54.10;12.13;;;2.00;99.90;;;;;;5072537;28;20052;-60
2020/12/07 12:09:26;;;;;;;98.53;13.20;;;2.00;99.90;;;;;;5071797;28;20039;-60
2020/12/07 12:11:52;;;;;;;70.72;13.63;;;2.00;99.90;;;;;;5072502;28;20044;-60
2020/12/07 12:14:17;;;;;;;169.88;14.15;;;2.00;99.90;;;;;;5072357;28;20071;-60
2020/12/07 12:16:43;;;;;;;66.78;13.02;;;2.00;99.90;;;;;;5071952;28;20028;-60
2020/12/07 12:19:11;;;;;;;72.78;12.63;;;2.00;99.90;;;;;;5072539;28;20021;-60
2020/12/07 12:21:38;;;;;;;70.88;14.13;;;2.00;99.90;;;;;;5072140;28;20024;-62
2020/12/07 12:24:05;;;;;;;64.95;14.70;;;2.10;99.90;;;;;;5072190;28;20032;-60
2020/12/07 12:26:35;;;;;;;95.95;14.85;;;2.10;99.90;;;;;;5071095;28;20024;-59
2020/12/07 12:29:02;;;;;;;105.68;13.27;;;2.20;99.90;;;;;;5072321;28;20393;-60
2020/12/07 12:31:28;;;;;;;96.82;13.25;;;2.10;99.90;;;;;;5071593;28;20492;-59
2020/12/07 12:33:55;;;;;;;49.88;14.70;;;2.10;99.90;;;;;;5072129;28;20024;-59
2020/12/07 12:36:24;;;;;;;62.13;16.20;;;2.10;99.90;;;;;;5070999;28;20032;-59
2020/12/07 12:38:50;;;;;;;53.53;15.60;;;2.20;99.90;;;;;;5072166;28;20070;-59
2020/12/07 12:41:16;;;;;;;68.75;13.90;;;2.30;99.90;;;;;;5071040;28;20386;-59
2020/12/07 12:43:43;;;;;;;77.35;14.20;;;2.20;99.90;;;;;;5072286;28;20028;-60
2020/12/07 12:46:09;;;;;;;119.20;12.27;;;2.10;99.90;;;;;;5070628;28;20032;-60
2020/12/07 12:48:35;;;;;;;98.07;11.65;;;2.00;99.90;;;;;;5071327;28;20028;-59
2020/12/07 12:51:01;;;;;;;100.45;14.45;;;2.00;99.90;;;;;;5071098;28;20521;-60
2020/12/07 12:53:30;;;;;;;63.47;14.95;;;1.90;99.90;;;;;;5070603;28;20502;-59
2020/12/07 12:55:56;;;;;;;84.75;16.00;;;2.00;99.90;;;;;;5070732;28;20047;-61
2020/12/07 12:58:22;;;;;;;59.03;15.43;;;2.10;99.90;;;;;;5071557;28;20032;-61
2020/12/07 13:00:48;;;;;;;52.75;15.95;;;2.20;99.90;;;;;;5070034;28;20061;-60
2020/12/07 13:03:15;;;;;;;132.73;19.58;;;2.20;99.90;;;;;;5071587;28;20150;-60
2020/12/07 13:05:41;;;;;;;81.78;13.02;;;2.20;99.90;;;;;;5070822;28;20028;-60